»·PEaware :: N3486 KPDX-KSEA

N3486 :: KPDX-KSEA

FLIGHT INFORMATION

Flight Status: Arrived
Operator: Privately registered:
United States
More flights under this callsign
Pilot: Joseph J. (19398)
Aircraft: PILATUS PC-12 EAGLE
(PC12)
More flights by this aircraft type
Origin: KPDX Portland Intl
United States
Destination: KSEA Seattle-Tacoma Intl
United States
More flights between these airports :: More routes between these airports
Route: +PTLD1 BTG OLM2
File this flight plan on PilotEdge
Remarks: CAT 1
Altitude:
(Current/Filed)
12,000ft
Speed:
(Current/Filed)
210kts
Departed: 13-Dec-18 11:54 AM
Arrived: 13-Dec-18 12:45 PM
Distance/Time
Traveled:
112nm/0:51
Distance/Time
To Go:
Arrived

Flight Plot

Page will automatically refresh every two minutes.


Map Options




Map Legend


Flown Route
Filed Route
Departure Airport
Arrival Airport
Navaid (VOR, NDB)
Fix

Horizontal Profiles

Position Reports

Time Latitude Longitude Heading Altitude Ground
Speed
13-Dec-18 11:34 45.587621 -122.584005 209 20ft 0kts
13-Dec-18 11:35 45.587621 -122.584005 209 20ft 0kts
13-Dec-18 11:36 45.587620 -122.584006 209 20ft 0kts
13-Dec-18 11:37 45.587620 -122.584006 209 20ft 0kts
13-Dec-18 11:38 45.587620 -122.584006 209 20ft 0kts
13-Dec-18 11:39 45.587620 -122.584006 209 20ft 0kts
13-Dec-18 11:40 45.587620 -122.584006 209 20ft 0kts
13-Dec-18 11:41 45.587620 -122.584006 209 20ft 0kts
13-Dec-18 11:42 45.587620 -122.584006 209 20ft 0kts
13-Dec-18 11:43 45.587620 -122.584006 209 20ft 0kts
13-Dec-18 11:44 45.587620 -122.584006 209 20ft 0kts
13-Dec-18 11:45 45.587679 -122.583718 3 20ft 3kts
13-Dec-18 11:46 45.588903 -122.586389 299 20ft 8kts
13-Dec-18 11:47 45.590327 -122.589542 305 20ft 12kts
13-Dec-18 11:49 45.592480 -122.595058 298 22ft 18kts
13-Dec-18 11:50 45.594672 -122.600652 298 23ft 11kts
13-Dec-18 11:51 45.595362 -122.601697 13 23ft 0kts
13-Dec-18 11:52 45.595387 -122.601684 23 23ft 2kts
13-Dec-18 11:53 45.595697 -122.600584 63 23ft 4kts
13-Dec-18 11:54 45.593086 -122.591273 118 48ft 102kts
13-Dec-18 11:55 45.576896 -122.548414 116 1459ft 141kts
13-Dec-18 11:56 45.558100 -122.495131 91 2875ft 159kts
13-Dec-18 11:57 45.600394 -122.486206 335 3805ft 196kts
13-Dec-18 11:58 45.647182 -122.519823 333 5556ft 179kts
13-Dec-18 11:59 45.689650 -122.549980 329 7478ft 168kts
13-Dec-18 12:00 45.731684 -122.580015 325 9184ft 171kts
13-Dec-18 12:01 45.781583 -122.586506 359 10568ft 201kts
13-Dec-18 12:02 45.840703 -122.576954 358 11522ft 221kts
13-Dec-18 12:03 45.902350 -122.567090 357 12010ft 229kts
13-Dec-18 12:04 45.967291 -122.556741 358 12002ft 239kts
13-Dec-18 12:05 46.034397 -122.545933 358 11994ft 246kts
13-Dec-18 12:06 46.101563 -122.535075 358 12095ft 246kts
13-Dec-18 12:07 46.168701 -122.524236 358 12093ft 247kts
13-Dec-18 12:07 46.225700 -122.515001 358 12093ft 248kts
13-Dec-18 12:09 46.305539 -122.502039 358 12093ft 248kts
13-Dec-18 12:10 46.368695 -122.518518 326 12094ft 230kts
13-Dec-18 12:10 46.417492 -122.549567 327 12090ft 231kts
13-Dec-18 12:11 46.476838 -122.587002 327 12068ft 234kts
13-Dec-18 12:13 46.547364 -122.631564 328 11589ft 245kts
13-Dec-18 12:13 46.600002 -122.664843 328 10770ft 250kts
13-Dec-18 12:14 46.663989 -122.705359 328 10040ft 244kts
13-Dec-18 12:16 46.733341 -122.749546 328 10036ft 228kts
13-Dec-18 12:16 46.781541 -122.780357 327 10029ft 226kts
13-Dec-18 12:17 46.835556 -122.822800 334 10027ft 229kts
13-Dec-18 12:18 46.894880 -122.855092 329 10011ft 227kts
13-Dec-18 12:19 46.953257 -122.890751 328 10011ft 229kts
13-Dec-18 12:20 47.012105 -122.851309 38 10012ft 257kts
13-Dec-18 12:21 47.066016 -122.782051 38 10012ft 258kts
13-Dec-18 12:22 47.118628 -122.714602 38 10005ft 258kts
13-Dec-18 12:23 47.172963 -122.644971 38 10002ft 260kts
13-Dec-18 12:24 47.227313 -122.575147 38 10002ft 262kts
13-Dec-18 12:25 47.282168 -122.504437 38 10008ft 262kts
13-Dec-18 12:26 47.346754 -122.473366 357 9948ft 250kts
13-Dec-18 12:27 47.417747 -122.466091 357 8752ft 261kts
13-Dec-18 12:28 47.488058 -122.459258 357 7464ft 238kts
13-Dec-18 12:29 47.549969 -122.454053 357 6549ft 210kts
13-Dec-18 12:30 47.607105 -122.450553 357 5560ft 204kts
13-Dec-18 12:31 47.661426 -122.449132 357 4544ft 192kts
13-Dec-18 12:32 47.711892 -122.433203 53 3996ft 193kts
13-Dec-18 12:33 47.744310 -122.373889 54 3977ft 178kts
13-Dec-18 12:34 47.769335 -122.317725 105 3981ft 156kts
13-Dec-18 12:35 47.734427 -122.314074 188 3979ft 149kts
13-Dec-18 12:36 47.693344 -122.315496 178 3981ft 147kts
13-Dec-18 12:37 47.652779 -122.315990 178 3981ft 145kts
13-Dec-18 12:38 47.609696 -122.316519 178 3214ft 150kts
13-Dec-18 12:39 47.576257 -122.316775 177 2572ft 93kts
13-Dec-18 12:40 47.548172 -122.316990 177 2038ft 109kts
13-Dec-18 12:41 47.519136 -122.317294 177 1463ft 101kts
13-Dec-18 12:42 47.491291 -122.317833 178 932ft 98kts
13-Dec-18 12:43 47.464959 -122.317905 176 398ft 89kts
13-Dec-18 12:44 47.452574 -122.317932 182 354ft 25kts
13-Dec-18 12:45 47.446927 -122.315579 127 373ft 17kts
13-Dec-18 12:46 47.443275 -122.313600 178 367ft 6kts
13-Dec-18 12:47 47.439550 -122.314395 277 354ft 9kts
13-Dec-18 12:48 47.438421 -122.315199 175 348ft 0kts

Navigation Log

Ident Type
Flight plan parsing failed, navigation log unavailable